createdAt,value
2018-03-04T00:01:03.015Z,88.70
2018-03-04T00:03:30.373Z,75.70
2018-03-04T00:05:57.759Z,75.43
2018-03-04T00:08:25.144Z,74.20
2018-03-04T00:10:52.536Z,67.83
2018-03-04T00:13:19.883Z,64.23
2018-03-04T00:15:47.258Z,67.17
2018-03-04T00:18:14.621Z,64.73
2018-03-04T00:20:41.998Z,64.83
2018-03-04T00:23:09.343Z,65.80
2018-03-04T00:25:36.762Z,66.47
2018-03-04T00:28:04.128Z,67.43
2018-03-04T00:30:31.505Z,67.57
2018-03-04T00:32:58.861Z,67.33
2018-03-04T00:35:26.257Z,66.37
2018-03-04T00:37:53.647Z,70.93
2018-03-04T00:40:20.994Z,64.47
2018-03-04T00:42:48.370Z,66.70
2018-03-04T00:45:15.748Z,63.67
2018-03-04T00:47:43.128Z,67.00
2018-03-04T00:50:10.494Z,68.33
2018-03-04T00:52:37.862Z,65.23
2018-03-04T00:55:05.228Z,68.00
2018-03-04T00:57:32.600Z,66.40
2018-03-04T00:59:59.998Z,67.60
2018-03-04T01:02:27.493Z,64.83
2018-03-04T01:04:54.837Z,68.67
2018-03-04T01:07:22.215Z,66.37
2018-03-04T01:09:49.577Z,64.30
2018-03-04T01:12:16.960Z,67.27
2018-03-04T01:14:44.308Z,66.43
2018-03-04T01:17:11.682Z,65.97
2018-03-04T01:19:39.030Z,68.23
2018-03-04T01:22:06.410Z,65.97
2018-03-04T01:24:33.754Z,62.77
2018-03-04T01:27:01.142Z,65.97
2018-03-04T01:29:28.482Z,65.03
2018-03-04T01:31:55.880Z,62.80
2018-03-04T01:34:23.254Z,63.77
2018-03-04T01:36:50.602Z,67.70
2018-03-04T01:39:17.974Z,66.20
2018-03-04T01:41:45.326Z,62.70
2018-03-04T01:44:12.706Z,60.70
2018-03-04T01:46:40.060Z,65.30
2018-03-04T01:49:07.438Z,64.30
2018-03-04T01:51:40.684Z,63.30
2018-03-04T01:54:08.063Z,60.77
2018-03-04T01:56:35.414Z,61.17
2018-03-04T01:59:02.809Z,55.00
2018-03-04T02:01:30.161Z,56.50
2018-03-04T02:03:57.530Z,59.40
2018-03-04T02:06:24.889Z,57.10
2018-03-04T02:08:52.293Z,58.47
2018-03-04T02:11:19.646Z,61.10
2018-03-04T02:13:47.023Z,60.37
2018-03-04T02:16:14.369Z,59.73
2018-03-04T02:18:41.752Z,59.47
2018-03-04T02:21:09.113Z,56.90
2018-03-04T02:23:36.492Z,58.33
2018-03-04T02:26:03.885Z,55.80
2018-03-04T02:28:31.244Z,59.00
2018-03-04T02:30:58.614Z,61.60
2018-03-04T02:33:25.991Z,60.07
2018-03-04T02:35:53.399Z,56.80
2018-03-04T02:38:20.753Z,60.00
2018-03-04T02:40:48.131Z,57.30
2018-03-04T02:43:15.502Z,57.73
2018-03-04T02:45:42.884Z,59.40
2018-03-04T02:48:10.298Z,60.10
2018-03-04T02:50:37.653Z,58.17
2018-03-04T02:53:05.060Z,59.97
2018-03-04T02:55:32.416Z,63.20
2018-03-04T02:57:59.849Z,64.07
2018-03-04T03:00:27.201Z,59.63
2018-03-04T03:02:54.640Z,61.10
2018-03-04T03:05:21.986Z,61.33
2018-03-04T03:07:49.361Z,61.60
2018-03-04T03:10:16.723Z,59.07
2018-03-04T03:12:44.120Z,58.20
2018-03-04T03:15:11.470Z,57.67
2018-03-04T03:17:38.858Z,57.57
2018-03-04T03:20:06.207Z,56.47
2018-03-04T03:22:33.592Z,56.43
2018-03-04T03:25:00.943Z,55.37
2018-03-04T03:27:28.309Z,59.83
2018-03-04T03:29:55.661Z,54.20
2018-03-04T03:32:23.046Z,57.30
2018-03-04T03:34:50.419Z,53.10
2018-03-04T03:37:17.764Z,53.47
2018-03-04T03:39:45.136Z,53.43
2018-03-04T03:42:12.487Z,53.07
2018-03-04T03:44:39.876Z,51.53
2018-03-04T03:47:07.329Z,47.37
2018-03-04T03:49:34.728Z,49.77
2018-03-04T03:52:02.072Z,50.43
2018-03-04T03:54:29.442Z,55.67
2018-03-04T03:56:56.786Z,59.13
2018-03-04T03:59:24.162Z,60.03
2018-03-04T04:01:51.512Z,61.43
2018-03-04T04:04:18.913Z,60.00
2018-03-04T04:06:46.268Z,58.90
2018-03-04T04:09:13.674Z,61.27
2018-03-04T04:11:41.059Z,64.30
2018-03-04T04:14:08.459Z,59.20
2018-03-04T04:16:35.822Z,57.17
2018-03-04T04:19:03.211Z,59.77
2018-03-04T04:21:30.555Z,59.87
2018-03-04T04:23:57.948Z,60.30
2018-03-04T04:26:25.302Z,58.27
2018-03-04T04:28:52.669Z,61.65
2018-03-04T04:31:20.040Z,57.73
2018-03-04T04:33:47.509Z,59.13
2018-03-04T04:36:14.883Z,56.87
2018-03-04T04:38:42.374Z,58.70
2018-03-04T04:41:09.750Z,59.70
2018-03-04T04:43:37.100Z,58.50
2018-03-04T04:46:04.479Z,61.77
2018-03-04T04:48:31.836Z,59.73
2018-03-04T04:50:59.219Z,58.07
2018-03-04T04:53:26.585Z,56.40
2018-03-04T04:55:53.955Z,58.97
2018-03-04T04:58:21.317Z,62.03
2018-03-04T05:00:48.695Z,58.53
2018-03-04T05:03:16.039Z,59.57
2018-03-04T05:05:43.410Z,57.20
2018-03-04T05:08:10.776Z,57.60
2018-03-04T05:10:38.194Z,53.67
2018-03-04T05:13:05.538Z,53.00
2018-03-04T05:15:32.906Z,48.40
2018-03-04T05:18:00.252Z,48.83
2018-03-04T05:20:27.618Z,46.17
2018-03-04T05:22:54.982Z,45.50
2018-03-04T05:25:22.353Z,47.13
2018-03-04T05:27:49.718Z,51.53
2018-03-04T05:30:17.103Z,54.00
2018-03-04T05:32:44.459Z,53.47
2018-03-04T05:35:11.802Z,48.27
2018-03-04T05:37:39.176Z,53.30
2018-03-04T05:40:06.516Z,49.40
2018-03-04T05:42:33.930Z,52.08
2018-03-04T05:45:01.319Z,54.87
2018-03-04T05:47:28.698Z,51.50
2018-03-04T05:49:56.049Z,47.70
2018-03-04T05:52:23.417Z,47.97
2018-03-04T05:54:50.781Z,49.30
2018-03-04T05:57:18.166Z,54.05
2018-03-04T05:59:45.513Z,50.17
2018-03-04T06:02:12.876Z,49.67
2018-03-04T06:04:40.227Z,47.80
2018-03-04T06:07:07.592Z,40.70
2018-03-04T06:09:34.952Z,50.25
2018-03-04T06:12:02.357Z,54.30
2018-03-04T06:14:29.718Z,51.13
2018-03-04T06:16:57.111Z,54.17
2018-03-04T06:19:24.462Z,54.67
2018-03-04T06:21:51.838Z,52.30
2018-03-04T06:24:19.190Z,55.27
2018-03-04T06:26:46.588Z,56.47
2018-03-04T06:29:13.938Z,55.53
2018-03-04T06:31:41.331Z,53.90
2018-03-04T06:34:08.678Z,51.93
2018-03-04T06:36:36.059Z,50.37
2018-03-04T06:39:03.427Z,47.97
2018-03-04T06:41:30.819Z,44.50
2018-03-04T06:43:58.174Z,41.40
2018-03-04T06:46:25.536Z,41.90
2018-03-04T06:48:52.929Z,39.20
2018-03-04T06:51:20.269Z,43.60
2018-03-04T06:53:47.656Z,42.10
2018-03-04T06:56:15.010Z,43.27
2018-03-04T06:58:42.383Z,43.10
2018-03-04T07:01:09.761Z,46.55
2018-03-04T07:03:37.127Z,45.83
2018-03-04T07:06:04.480Z,47.25
2018-03-04T07:08:31.847Z,45.83
2018-03-04T07:10:59.188Z,45.30
2018-03-04T07:13:26.559Z,47.42
2018-03-04T07:15:53.907Z,47.20
2018-03-04T07:18:21.281Z,42.93
2018-03-04T07:20:48.627Z,39.13
2018-03-04T07:23:16.005Z,39.22
2018-03-04T07:25:43.348Z,34.20
2018-03-04T07:28:10.719Z,32.70
2018-03-04T07:30:38.059Z,28.73
2018-03-04T07:33:05.448Z,30.95
2018-03-04T07:35:32.787Z,30.27
2018-03-04T07:38:00.139Z,30.30
2018-03-04T07:40:27.517Z,28.47
2018-03-04T07:42:54.862Z,25.80
2018-03-04T07:45:22.234Z,27.73
2018-03-04T07:47:49.582Z,26.13
2018-03-04T07:50:16.950Z,26.27
2018-03-04T07:52:44.307Z,25.17
2018-03-04T07:55:11.680Z,25.40
2018-03-04T07:57:39.026Z,25.20
2018-03-04T08:00:06.394Z,24.40
2018-03-04T08:02:33.736Z,21.90
2018-03-04T08:05:01.108Z,22.47
2018-03-04T08:07:28.452Z,21.20
2018-03-04T08:09:55.838Z,22.20
2018-03-04T08:12:23.175Z,24.33
2018-03-04T08:14:50.551Z,20.88
2018-03-04T08:17:17.895Z,21.20
2018-03-04T08:19:45.287Z,22.45
2018-03-04T08:22:12.645Z,20.50
2018-03-04T08:24:40.058Z,21.60
2018-03-04T08:27:13.351Z,19.87
2018-03-04T08:29:40.724Z,20.57
2018-03-04T08:32:08.073Z,18.20
2018-03-04T08:34:35.448Z,20.30
2018-03-04T08:37:02.807Z,18.43
2018-03-04T08:39:30.175Z,18.20
2018-03-04T08:41:57.539Z,18.07
2018-03-04T08:44:24.879Z,16.40
2018-03-04T08:46:52.251Z,15.03
2018-03-04T08:49:19.602Z,15.03
2018-03-04T08:51:46.985Z,15.07
2018-03-04T08:54:14.331Z,16.27
2018-03-04T08:56:41.706Z,13.87
2018-03-04T08:59:09.044Z,14.37
2018-03-04T09:01:36.424Z,13.80
2018-03-04T09:04:03.777Z,13.67
2018-03-04T09:06:31.155Z,12.27
2018-03-04T09:08:58.488Z,13.30
2018-03-04T09:11:25.853Z,13.23
2018-03-04T09:13:53.194Z,13.83
2018-03-04T09:16:20.562Z,12.10
2018-03-04T09:18:47.908Z,13.93
2018-03-04T09:21:15.278Z,13.17
2018-03-04T09:23:42.627Z,14.57
2018-03-04T09:26:10.000Z,29.13
2018-03-04T09:28:37.388Z,16.80
2018-03-04T09:31:04.734Z,13.40
2018-03-04T09:33:32.070Z,14.00
2018-03-04T09:35:59.491Z,13.40
2018-03-04T09:38:26.875Z,13.63
2018-03-04T09:40:54.222Z,13.60
2018-03-04T09:43:21.566Z,13.03
2018-03-04T09:45:48.936Z,14.20
2018-03-04T09:48:16.277Z,12.87
2018-03-04T09:50:43.653Z,13.97
2018-03-04T09:53:10.996Z,13.97
2018-03-04T09:55:38.341Z,11.70
2018-03-04T09:58:05.802Z,11.87
2018-03-04T10:00:33.150Z,11.03
2018-03-04T10:03:00.518Z,12.03
2018-03-04T10:05:28.134Z,11.30
2018-03-04T10:07:55.508Z,12.80
2018-03-04T10:10:22.843Z,12.10
2018-03-04T10:12:50.207Z,12.20
2018-03-04T10:15:17.549Z,12.80
2018-03-04T10:17:44.917Z,12.10
2018-03-04T10:20:12.257Z,11.53
2018-03-04T10:22:39.678Z,10.63
2018-03-04T10:25:07.020Z,9.70
2018-03-04T10:27:34.379Z,9.60
2018-03-04T10:30:01.743Z,8.80
2018-03-04T10:32:29.104Z,8.63
2018-03-04T10:34:56.688Z,9.00
2018-03-04T10:37:24.066Z,8.10
2018-03-04T10:39:51.418Z,10.60
2018-03-04T10:42:18.781Z,10.87
2018-03-04T10:44:46.119Z,9.10
2018-03-04T10:47:13.474Z,9.87
2018-03-04T10:49:40.810Z,8.80
2018-03-04T10:52:08.182Z,9.90
2018-03-04T10:54:35.519Z,8.07
2018-03-04T10:57:02.922Z,9.60
2018-03-04T10:59:30.254Z,8.50
2018-03-04T11:02:03.471Z,10.37
2018-03-04T11:04:30.832Z,8.10
2018-03-04T11:06:58.170Z,7.20
2018-03-04T11:09:25.533Z,6.97
2018-03-04T11:11:52.868Z,9.27
2018-03-04T11:14:20.233Z,8.77
2018-03-04T11:16:47.815Z,9.70
2018-03-04T11:19:15.218Z,8.07
2018-03-04T11:21:42.556Z,7.97
2018-03-04T11:24:09.933Z,9.00
2018-03-04T11:26:37.303Z,7.77
2018-03-04T11:29:04.673Z,7.70
2018-03-04T11:31:32.007Z,8.00
2018-03-04T11:33:59.404Z,6.90
2018-03-04T11:36:26.731Z,7.47
2018-03-04T11:38:54.107Z,7.93
2018-03-04T11:41:21.464Z,5.97
2018-03-04T11:43:48.829Z,5.30
2018-03-04T11:46:16.167Z,6.13
2018-03-04T11:48:43.530Z,5.77
2018-03-04T11:51:10.860Z,6.13
2018-03-04T11:53:38.224Z,4.80
2018-03-04T11:56:05.710Z,6.10
2018-03-04T11:58:33.203Z,4.80
2018-03-04T12:01:00.538Z,3.70
2018-03-04T12:03:27.891Z,4.03
2018-03-04T12:05:55.263Z,4.33
2018-03-04T12:08:22.615Z,4.40
2018-03-04T12:10:49.939Z,3.10
2018-03-04T12:15:59.983Z,5.77
2018-03-04T12:18:27.396Z,3.63
2018-03-04T12:20:54.719Z,3.60
2018-03-04T12:23:22.306Z,3.50
2018-03-04T12:25:50.998Z,4.10
2018-03-04T12:28:19.844Z,3.60
2018-03-04T12:30:48.610Z,3.20
2018-03-04T12:33:16.354Z,2.50
2018-03-04T12:35:44.910Z,4.33
2018-03-04T12:38:13.803Z,2.60
2018-03-04T12:40:42.706Z,4.40
2018-03-04T12:43:10.455Z,2.70
2018-03-04T12:45:37.908Z,2.23
2018-03-04T12:48:05.554Z,2.40
2018-03-04T12:50:32.978Z,3.03
2018-03-04T12:53:01.904Z,1.92
2018-03-04T12:55:30.714Z,2.10
2018-03-04T12:57:58.184Z,2.30
2018-03-04T13:00:25.708Z,2.10
2018-03-04T13:02:53.133Z,1.87
2018-03-04T13:05:20.544Z,1.67
2018-03-04T13:07:47.915Z,1.30
2018-03-04T13:10:15.293Z,1.53
2018-03-04T13:12:42.678Z,1.67
2018-03-04T13:15:10.051Z,1.70
2018-03-04T13:17:37.461Z,1.90
2018-03-04T13:20:04.931Z,1.77
2018-03-04T13:22:32.402Z,1.47
2018-03-04T13:24:59.878Z,1.40
2018-03-04T13:27:27.248Z,1.20
2018-03-04T13:29:54.773Z,1.23
2018-03-04T13:32:22.177Z,1.47
2018-03-04T13:34:49.588Z,1.30
2018-03-04T13:37:17.052Z,1.03
2018-03-04T13:39:44.619Z,1.57
2018-03-04T13:42:12.184Z,1.10
2018-03-04T13:44:39.580Z,1.30
2018-03-04T13:47:07.047Z,1.03
2018-03-04T13:49:34.418Z,1.90
2018-03-04T13:52:01.793Z,3.10
2018-03-04T13:54:29.206Z,2.07
2018-03-04T13:56:56.688Z,1.50
2018-03-04T13:59:24.082Z,3.33
2018-03-04T14:01:51.549Z,1.67
2018-03-04T14:04:18.947Z,1.40
2018-03-04T14:06:46.382Z,1.30
2018-03-04T14:09:13.765Z,1.43
2018-03-04T14:11:41.698Z,1.87
2018-03-04T14:14:09.411Z,1.27
2018-03-04T14:16:36.911Z,1.10
2018-03-04T14:19:04.392Z,1.30
2018-03-04T14:21:31.824Z,1.50
2018-03-04T14:23:59.631Z,1.30
2018-03-04T14:26:27.041Z,1.63
2018-03-04T14:28:54.467Z,2.20
2018-03-04T14:31:21.875Z,1.50
2018-03-04T14:33:49.253Z,1.47
2018-03-04T14:36:16.662Z,1.63
2018-03-04T14:38:44.054Z,2.00
2018-03-04T14:41:11.388Z,1.80
2018-03-04T14:43:38.776Z,1.60
2018-03-04T14:46:06.242Z,1.50
2018-03-04T14:48:33.648Z,1.53
2018-03-04T14:51:00.985Z,1.40
2018-03-04T14:53:28.383Z,0.90
2018-03-04T14:55:55.701Z,1.10
2018-03-04T14:58:23.060Z,1.00
2018-03-04T15:00:50.387Z,1.33
2018-03-04T15:03:17.763Z,1.10
2018-03-04T15:05:45.104Z,0.93
2018-03-04T15:08:12.475Z,1.30
2018-03-04T15:10:39.908Z,1.40
2018-03-04T15:13:07.261Z,1.27
2018-03-04T15:15:34.616Z,1.50
2018-03-04T15:18:02.111Z,1.67
2018-03-04T15:20:29.511Z,1.70
2018-03-04T15:22:56.912Z,1.97
2018-03-04T15:25:24.291Z,1.50
2018-03-04T15:27:51.627Z,2.07
2018-03-04T15:30:18.983Z,1.50
2018-03-04T15:32:46.313Z,1.93
2018-03-04T15:35:13.704Z,2.33
2018-03-04T15:37:41.048Z,1.50
2018-03-04T15:40:08.404Z,1.90
2018-03-04T15:42:35.735Z,1.83
2018-03-04T15:45:03.106Z,3.53
2018-03-04T15:47:30.459Z,2.50
2018-03-04T15:49:57.816Z,2.00
2018-03-04T15:52:25.149Z,2.30
2018-03-04T15:54:52.512Z,2.40
2018-03-04T15:57:19.845Z,3.30
2018-03-04T15:59:47.213Z,2.97
2018-03-04T16:02:14.564Z,3.53
2018-03-04T16:04:41.899Z,4.13
2018-03-04T16:07:09.256Z,4.00
2018-03-04T16:09:36.599Z,2.90
2018-03-04T16:12:03.956Z,4.43
2018-03-04T16:14:31.285Z,3.40
2018-03-04T16:16:58.647Z,3.40
2018-03-04T16:19:25.983Z,3.50
2018-03-04T16:21:53.342Z,3.87
2018-03-04T16:24:20.670Z,3.57
2018-03-04T16:26:48.045Z,3.50
2018-03-04T16:29:15.375Z,3.40
2018-03-04T16:31:42.735Z,3.90
2018-03-04T16:34:10.067Z,4.43
2018-03-04T16:36:37.438Z,6.33
2018-03-04T16:39:04.778Z,16.90
2018-03-04T16:41:32.156Z,14.20
2018-03-04T16:43:59.499Z,31.00
2018-03-04T16:46:26.880Z,27.33
2018-03-04T16:48:54.246Z,23.27
2018-03-04T16:51:21.612Z,30.73
2018-03-04T16:53:48.953Z,37.07
2018-03-04T16:56:16.324Z,19.70
2018-03-04T16:58:43.684Z,14.07
2018-03-04T17:01:11.057Z,8.73
2018-03-04T17:03:38.430Z,11.07
2018-03-04T17:06:05.971Z,10.90
2018-03-04T17:08:33.340Z,11.70
2018-03-04T17:11:00.682Z,9.70
2018-03-04T17:13:28.056Z,9.30
2018-03-04T17:15:55.400Z,10.27
2018-03-04T17:18:22.774Z,10.27
2018-03-04T17:20:50.121Z,6.30
2018-03-04T17:23:17.490Z,8.70
2018-03-04T17:25:44.828Z,7.03
2018-03-04T17:28:12.204Z,7.83
2018-03-04T17:30:39.654Z,7.97
2018-03-04T17:33:07.032Z,8.70
2018-03-04T17:35:34.375Z,8.53
2018-03-04T17:38:01.754Z,9.47
2018-03-04T17:40:29.099Z,8.80
2018-03-04T17:42:56.619Z,9.47
2018-03-04T17:45:23.954Z,10.23
2018-03-04T17:47:51.327Z,10.70
2018-03-04T17:50:18.667Z,10.93
2018-03-04T17:52:46.036Z,11.13
2018-03-04T17:55:13.380Z,13.27
2018-03-04T17:57:40.785Z,13.77
2018-03-04T18:00:08.120Z,13.30
2018-03-04T18:02:35.463Z,12.60
2018-03-04T18:05:02.834Z,14.17
2018-03-04T18:07:30.176Z,14.63
2018-03-04T18:09:58.368Z,14.03
2018-03-04T18:12:25.839Z,16.63
2018-03-04T18:14:53.218Z,15.93
2018-03-04T18:17:20.561Z,14.93
2018-03-04T18:19:48.109Z,17.00
2018-03-04T18:22:15.448Z,17.17
2018-03-04T18:24:42.821Z,17.70
2018-03-04T18:27:10.192Z,17.90
2018-03-04T18:29:37.558Z,19.40
2018-03-04T18:32:04.905Z,17.73
2018-03-04T18:34:33.250Z,17.67
2018-03-04T18:37:00.671Z,18.93
2018-03-04T18:39:28.142Z,20.87
2018-03-04T18:41:55.487Z,20.40
2018-03-04T18:44:22.991Z,19.90
2018-03-04T18:46:50.329Z,19.57
2018-03-04T18:49:17.711Z,21.73
2018-03-04T18:51:45.060Z,20.50
2018-03-04T18:54:12.433Z,20.33
2018-03-04T18:56:39.804Z,20.90
2018-03-04T18:59:07.142Z,24.30
2018-03-04T19:01:34.583Z,23.93
2018-03-04T19:04:02.039Z,22.93
2018-03-04T19:06:29.516Z,22.63
2018-03-04T19:08:56.866Z,20.13
2018-03-04T19:11:24.244Z,21.00
2018-03-04T19:13:51.678Z,20.90
2018-03-04T19:16:19.047Z,20.80
2018-03-04T19:18:46.398Z,20.90
2018-03-04T19:21:13.786Z,20.40
2018-03-04T19:23:41.139Z,18.87
2018-03-04T19:26:08.515Z,18.60
2018-03-04T19:28:35.868Z,20.30
2018-03-04T19:31:03.292Z,22.20
2018-03-04T19:33:30.636Z,19.50
2018-03-04T19:35:57.993Z,19.53
2018-03-04T19:38:25.337Z,20.40
2018-03-04T19:40:52.725Z,19.80
2018-03-04T19:43:20.108Z,19.50
2018-03-04T19:45:47.469Z,19.10
2018-03-04T19:48:14.838Z,19.60
2018-03-04T19:50:42.174Z,21.40
2018-03-04T19:53:09.542Z,19.30
2018-03-04T19:55:36.886Z,20.40
2018-03-04T19:58:04.280Z,21.10
2018-03-04T20:00:31.637Z,20.67
2018-03-04T20:02:59.014Z,19.00
2018-03-04T20:05:26.396Z,20.73
2018-03-04T20:07:53.790Z,21.30
2018-03-04T20:10:21.133Z,21.83
2018-03-04T20:12:48.524Z,20.43
2018-03-04T20:15:15.869Z,21.03
2018-03-04T20:17:43.243Z,21.73
2018-03-04T20:20:10.584Z,22.60
2018-03-04T20:22:37.960Z,21.97
2018-03-04T20:25:05.318Z,23.77
2018-03-04T20:27:32.688Z,23.00
2018-03-04T20:30:00.032Z,22.40
2018-03-04T20:32:27.411Z,22.27
2018-03-04T20:34:54.762Z,21.77
2018-03-04T20:37:22.139Z,23.40
2018-03-04T20:39:49.480Z,22.17
2018-03-04T20:42:16.820Z,22.90
2018-03-04T20:44:44.279Z,22.10
2018-03-04T20:47:11.629Z,26.07
2018-03-04T20:49:39.099Z,23.97
2018-03-04T20:52:06.440Z,25.03
2018-03-04T20:54:33.809Z,23.07
2018-03-04T20:57:01.163Z,22.93
2018-03-04T20:59:28.567Z,24.80
2018-03-04T21:01:55.922Z,20.53
2018-03-04T21:04:23.286Z,22.77
2018-03-04T21:06:50.636Z,19.43
2018-03-04T21:09:18.021Z,22.30
2018-03-04T21:11:45.364Z,21.87
2018-03-04T21:14:12.744Z,22.33
2018-03-04T21:16:40.083Z,21.27
2018-03-04T21:19:07.439Z,19.30
2018-03-04T21:21:34.916Z,22.33
2018-03-04T21:24:02.266Z,20.67
2018-03-04T21:26:29.639Z,19.67
2018-03-04T21:28:56.984Z,20.57
2018-03-04T21:31:24.360Z,21.20
2018-03-04T21:33:51.703Z,20.37
2018-03-04T21:36:19.238Z,22.03
2018-03-04T21:38:46.617Z,22.20
2018-03-04T21:41:13.987Z,23.33
2018-03-04T21:43:41.329Z,24.07
2018-03-04T21:46:08.929Z,21.83
2018-03-04T21:48:36.294Z,24.17
2018-03-04T21:51:03.664Z,26.00
2018-03-04T21:53:31.001Z,21.40
2018-03-04T21:55:58.380Z,22.30
2018-03-04T21:58:25.734Z,20.50
2018-03-04T22:00:53.072Z,20.97
2018-03-04T22:03:20.446Z,21.60
2018-03-04T22:05:47.791Z,23.30
2018-03-04T22:08:15.159Z,28.90
2018-03-04T22:10:42.499Z,35.23
2018-03-04T22:13:09.869Z,26.80
2018-03-04T22:15:37.233Z,23.13
2018-03-04T22:18:04.613Z,25.17
2018-03-04T22:20:32.091Z,21.80
2018-03-04T22:22:59.471Z,22.57
2018-03-04T22:25:26.820Z,21.00
2018-03-04T22:27:54.218Z,22.30
2018-03-04T22:30:21.561Z,22.30
2018-03-04T22:32:48.944Z,21.13
2018-03-04T22:35:16.283Z,22.97
2018-03-04T22:37:43.648Z,20.70
2018-03-04T22:40:11.021Z,22.33
2018-03-04T22:42:38.375Z,21.90
2018-03-04T22:45:05.718Z,22.07
2018-03-04T22:47:33.088Z,22.57
2018-03-04T22:50:00.430Z,23.83
2018-03-04T22:52:27.826Z,22.73
2018-03-04T22:54:55.165Z,23.53
2018-03-04T22:57:22.541Z,23.60
2018-03-04T22:59:49.905Z,22.47
2018-03-04T23:02:17.256Z,25.17
2018-03-04T23:04:44.658Z,21.20
2018-03-04T23:07:11.999Z,21.83
2018-03-04T23:09:39.364Z,22.37
2018-03-04T23:12:06.704Z,21.87
2018-03-04T23:14:34.159Z,24.00
2018-03-04T23:17:01.494Z,21.90
2018-03-04T23:19:28.970Z,19.37
2018-03-04T23:21:56.328Z,17.27
2018-03-04T23:24:23.713Z,14.10
2018-03-04T23:26:51.240Z,12.60
2018-03-04T23:29:18.619Z,11.83
2018-03-04T23:31:45.963Z,13.57
2018-03-04T23:34:13.413Z,11.07
2018-03-04T23:36:40.752Z,9.17
2018-03-04T23:39:08.116Z,9.40
2018-03-04T23:41:35.459Z,9.97
2018-03-04T23:44:03.023Z,8.57
2018-03-04T23:46:30.363Z,8.70
2018-03-04T23:48:57.697Z,8.90
2018-03-04T23:51:25.096Z,9.63
2018-03-04T23:53:52.430Z,7.80
2018-03-04T23:56:19.832Z,7.10
2018-03-04T23:58:47.174Z,6.17
